Terminal Aerodrome Forecast
Issued by NWS Wakefield, VA

Home | Current Version | Previous Version | Text Only | Print | Product List | Glossary On
Versions: 1 2 3 4 5 6 7 8 9 10 11 12 13 14 15
000
FTUS41 KAKQ 121140
TAFECG
TAF
KECG 121140Z 1212/1312 19009KT P6SM SCT250
     FM121500 23012KT P6SM SCT080
     FM122000 27014G20KT P6SM BKN080
     FM130000 29016G24KT P6SM SCT080=

USA.gov is the U.S. government's official web portal to all federal, state and local government web resources and services.